Аэропорт: Звартноц. Ереван

ICAO: UDYZ

METAR:
2020-10-24 05:00:00
UDYZ 240500Z 00000KT 6000 NSC 10/03 Q1024 R09/010070 NOSIG
METAR:
2020-10-23 23:10:00
TAF UDYZ 232310Z 2400/2424 15006KT CAVOK